Time;durP1;ratioP1;P1;durP2;ratioP2;P2;SDS_P1;SDS_P2;PMS_P1;PMS_P2;Temp;Humidity;BMP_temperature;BMP_pressure;BME280_temperature;BME280_humidity;BME280_pressure;Samples;Min_cycle;Max_cycle;Signal;HPM_P1;HPM_P2
2020/12/08 00:00:43;;;;;;;4.07;1.43;;;;;;;2.89;100.00;95306.00;5071771;28;20223;-68
2020/12/08 00:03:09;;;;;;;16.63;5.93;;;;;;;2.76;100.00;95304.66;5072081;28;20575;-66
2020/12/08 00:05:36;;;;;;;8.87;2.87;;;;;;;2.84;100.00;95309.31;5072097;28;20205;-66
2020/12/08 00:08:05;;;;;;;10.73;4.50;;;;;;;2.81;100.00;95311.59;5071793;28;20192;-66
2020/12/08 00:10:32;;;;;;;5.93;2.77;;;;;;;2.81;100.00;95312.38;5071782;28;20251;-67
2020/12/08 00:12:59;;;;;;;15.03;4.53;;;;;;;2.79;100.00;95304.13;5071859;28;20200;-67
2020/12/08 00:15:27;;;;;;;6.30;2.03;;;;;;;2.81;100.00;95302.13;5072093;28;20203;-67
2020/12/08 00:17:53;;;;;;;2.13;1.33;;;;;;;2.78;100.00;95300.06;5071505;28;20204;-67
2020/12/08 00:20:21;;;;;;;14.43;3.40;;;;;;;2.68;100.00;95314.63;5071645;28;20199;-68
2020/12/08 00:22:48;;;;;;;6.03;2.70;;;;;;;2.67;100.00;95313.06;5071461;28;20203;-66
2020/12/08 00:25:17;;;;;;;1.67;1.30;;;;;;;2.64;100.00;95319.44;5071593;28;20195;-68
2020/12/08 00:27:43;;;;;;;4.33;1.90;;;;;;;2.67;100.00;95313.84;5071501;28;20201;-67
2020/12/08 00:30:12;;;;;;;2.03;1.50;;;;;;;2.55;100.00;95320.94;5071191;28;20223;-67
2020/12/08 00:32:41;;;;;;;1.70;1.30;;;;;;;2.69;100.00;95313.59;5071652;28;20194;-66
2020/12/08 00:35:08;;;;;;;2.73;1.60;;;;;;;2.62;100.00;95323.28;5071413;28;20191;-68
2020/12/08 00:37:35;;;;;;;2.23;1.50;;;;;;;2.66;100.00;95321.78;5071101;28;20578;-66
2020/12/08 00:40:03;;;;;;;1.77;1.30;;;;;;;2.66;100.00;95327.69;5071001;28;20231;-67
2020/12/08 00:42:30;;;;;;;2.23;1.43;;;;;;;2.52;100.00;95329.91;5071001;28;20223;-68
2020/12/08 00:44:56;;;;;;;1.70;1.40;;;;;;;2.63;100.00;95335.09;5070991;28;20195;-67
2020/12/08 00:47:23;;;;;;;2.13;1.43;;;;;;;2.53;100.00;95330.69;5071234;28;20280;-66
2020/12/08 00:49:51;;;;;;;1.73;1.43;;;;;;;2.56;100.00;95336.06;5071219;28;20197;-66
2020/12/08 00:52:18;;;;;;;4.07;3.00;;;;;;;2.63;100.00;95335.09;5071110;28;20194;-65
2020/12/08 00:54:44;;;;;;;3.00;1.70;;;;;;;2.58;100.00;95346.88;5070770;28;20200;-64
2020/12/08 00:57:11;;;;;;;1.87;1.60;;;;;;;2.64;100.00;95349.47;5070928;28;20205;-65
2020/12/08 00:59:38;;;;;;;2.03;1.57;;;;;;;2.71;100.00;95347.47;5070735;28;20208;-66
2020/12/08 01:02:05;;;;;;;2.03;1.67;;;;;;;2.63;100.00;95341.00;5070528;28;20236;-66
2020/12/08 01:04:32;;;;;;;3.87;1.60;;;;;;;2.65;100.00;95335.59;5070634;28;20580;-67
2020/12/08 01:06:59;;;;;;;1.30;1.10;;;;;;;2.70;100.00;95338.97;5070873;28;20198;-67
2020/12/08 01:09:26;;;;;;;1.70;1.13;;;;;;;2.64;100.00;95344.34;5070696;28;20284;-67
2020/12/08 01:11:53;;;;;;;1.73;1.40;;;;;;;2.67;100.00;95349.75;5070458;28;20201;-66
2020/12/08 01:14:20;;;;;;;2.43;1.70;;;;;;;2.66;100.00;95352.56;5070543;28;20193;-66
2020/12/08 01:16:46;;;;;;;2.90;1.00;;;;;;;2.59;100.00;95348.41;5070539;28;20197;-67
2020/12/08 01:19:13;;;;;;;1.43;1.10;;;;;;;2.61;100.00;95355.84;5070474;28;20196;-66
2020/12/08 01:21:40;;;;;;;1.17;0.93;;;;;;;2.54;100.00;95353.50;5070628;28;20235;-67
2020/12/08 01:24:08;;;;;;;2.40;1.50;;;;;;;2.59;100.00;95353.53;5070358;28;20192;-67
2020/12/08 01:26:34;;;;;;;2.33;1.50;;;;;;;2.56;100.00;95354.03;5070324;28;20205;-66
2020/12/08 01:29:01;;;;;;;1.50;1.20;;;;;;;2.62;100.00;95352.28;5070206;28;20604;-63
2020/12/08 01:31:32;;;;;;;4.03;1.87;;;;;;;2.56;100.00;95348.13;5070571;28;20205;-66
2020/12/08 01:33:59;;;;;;;1.23;1.03;;;;;;;2.44;100.00;95348.28;5070475;28;20196;-62
2020/12/08 01:36:25;;;;;;;3.03;1.97;;;;;;;2.51;100.00;95355.78;5070556;28;20487;-66
2020/12/08 01:38:52;;;;;;;10.30;4.70;;;;;;;2.52;100.00;95344.50;5070291;28;20195;-65
2020/12/08 01:41:20;;;;;;;2.80;1.70;;;;;;;2.57;100.00;95350.47;5069881;28;20267;-67
2020/12/08 01:43:48;;;;;;;1.47;0.83;;;;;;;2.56;100.00;95354.03;5070239;28;20592;-67
2020/12/08 01:46:18;;;;;;;1.73;1.13;;;;;;;2.62;100.00;95352.28;5070428;28;20198;-66
2020/12/08 01:48:45;;;;;;;1.83;1.50;;;;;;;2.57;100.00;95355.59;5070153;28;20198;-66
2020/12/08 01:51:12;;;;;;;2.03;1.80;;;;;;;2.56;100.00;95359.16;5070286;28;20202;-66
2020/12/08 01:53:39;;;;;;;1.70;1.30;;;;;;;2.69;100.00;95352.06;5069925;28;20553;-67
2020/12/08 01:56:06;;;;;;;1.80;1.53;;;;;;;2.56;100.00;95348.91;5070239;28;20199;-65
2020/12/08 01:58:34;;;;;;;2.00;1.40;;;;;;;2.65;100.00;95353.56;5069945;28;20195;-67
2020/12/08 02:01:00;;;;;;;1.97;1.20;;;;;;;2.52;100.00;95347.06;5070029;28;20234;-66
2020/12/08 02:03:28;;;;;;;1.73;1.33;;;;;;;2.61;100.00;95353.28;5070028;28;20202;-67
2020/12/08 02:05:55;;;;;;;1.23;0.90;;;;;;;2.56;100.00;95348.91;5070297;28;20210;-68
2020/12/08 02:08:29;;;;;;;1.57;1.10;;;;;;;2.60;100.00;95352.50;5069993;28;20196;-67
2020/12/08 02:10:56;;;;;;;1.53;1.20;;;;;;;2.54;100.00;95348.38;5069907;28;20193;-66
2020/12/08 02:13:23;;;;;;;2.63;1.70;;;;;;;2.67;100.00;95349.75;5070127;28;20279;-67
2020/12/08 02:15:51;;;;;;;1.70;1.07;;;;;;;2.69;100.00;95349.50;5069850;28;20686;-67
2020/12/08 02:18:19;;;;;;;1.37;1.20;;;;;;;2.72;100.00;95347.22;5069886;28;20203;-67
2020/12/08 02:20:47;;;;;;;1.40;1.00;;;;;;;2.81;100.00;95350.09;5069608;28;20222;-67
2020/12/08 02:23:14;;;;;;;2.07;1.10;;;;;;;2.86;100.00;95342.41;5070379;28;20210;-68
2020/12/08 02:25:42;;;;;;;1.57;1.20;;;;;;;2.89;100.00;95340.13;5069915;28;20198;-67
2020/12/08 02:28:09;;;;;;;1.83;1.43;;;;;;;2.88;100.00;95335.25;5069856;28;20204;-67
2020/12/08 02:30:35;;;;;;;1.30;1.20;;;;;;;2.86;100.00;95338.06;5069489;28;20220;-67
2020/12/08 02:33:02;;;;;;;1.97;1.50;;;;;;;2.89;100.00;95342.69;5069665;28;20197;-67
2020/12/08 02:35:29;;;;;;;2.40;1.57;;;;;;;2.87;100.00;95337.03;5069992;28;20194;-66
2020/12/08 02:37:57;;;;;;;2.30;1.80;;;;;;;2.80;100.00;95346.75;5069567;28;20191;-67
2020/12/08 02:40:24;;;;;;;1.60;1.27;;;;;;;2.77;100.00;95339.56;5069501;28;20234;-67
2020/12/08 02:42:50;;;;;;;1.60;1.40;;;;;;;2.83;100.00;95341.13;5069622;28;20221;-66
2020/12/08 02:45:17;;;;;;;2.50;2.00;;;;;;;2.88;100.00;95342.94;5069831;28;20201;-67
2020/12/08 02:47:46;;;;;;;1.67;1.40;;;;;;;2.87;100.00;95343.97;5069525;28;20205;-66
2020/12/08 02:50:13;;;;;;;1.77;1.53;;;;;;;2.76;100.00;95343.13;5069503;28;20202;-67
2020/12/08 02:52:39;;;;;;;1.93;1.43;;;;;;;2.69;100.00;95334.88;5069580;28;20193;-67
2020/12/08 02:55:07;;;;;;;1.77;1.30;;;;;;;2.82;100.00;95325.97;5069461;28;20203;-67
2020/12/08 02:57:34;;;;;;;1.13;1.03;;;;;;;2.90;100.00;95333.19;5069332;28;20205;-67
2020/12/08 03:00:01;;;;;;;1.43;1.00;;;;;;;2.81;100.00;95334.69;5069435;28;20210;-64
2020/12/08 03:02:27;;;;;;;1.20;0.93;;;;;;;2.93;100.00;95342.97;5069232;28;20654;-67
2020/12/08 03:04:54;;;;;;;1.37;0.83;;;;;;;2.83;100.00;95337.78;5069614;28;20209;-64
2020/12/08 03:07:21;;;;;;;1.17;1.00;;;;;;;2.76;100.00;95326.97;5069356;28;20205;-67
2020/12/08 03:09:48;;;;;;;2.80;2.07;;;;;;;2.72;100.00;95331.03;5070218;28;20571;-65
2020/12/08 03:12:15;;;;;;;1.20;1.03;;;;;;;2.79;100.00;95327.22;5072715;28;20203;-65
2020/12/08 03:14:43;;;;;;;1.03;0.83;;;;;;;2.80;100.00;95331.34;5072681;28;20199;-67
2020/12/08 03:17:10;;;;;;;2.10;1.20;;;;;;;2.70;100.00;95344.13;5072729;28;20192;-65
2020/12/08 03:19:37;;;;;;;1.53;1.27;;;;;;;2.69;100.00;95350.25;5072935;28;20189;-66
2020/12/08 03:22:05;;;;;;;1.43;1.27;;;;;;;2.63;100.00;95356.41;5072380;28;20626;-66
2020/12/08 03:24:33;;;;;;;1.77;1.17;;;;;;;2.76;100.00;95357.75;5072722;28;20223;-66
2020/12/08 03:26:59;;;;;;;2.80;1.60;;;;;;;2.75;100.00;95362.09;5072664;28;20194;-66
2020/12/08 03:29:27;;;;;;;2.37;1.40;;;;;;;2.79;99.57;95360.59;5072449;28;20221;-66
2020/12/08 03:31:54;;;;;;;2.23;1.40;;;;;;;2.82;99.72;95362.69;5072857;28;20221;-66
2020/12/08 03:34:37;;;;;;;1.33;1.00;;;;;;;2.90;98.95;95358.84;5072452;28;20194;-65
2020/12/08 03:37:04;;;;;;;1.37;1.10;;;;;;;2.83;99.39;95363.44;5072557;28;20232;-65
2020/12/08 03:39:31;;;;;;;1.73;1.30;;;;;;;2.81;100.00;95368.03;5072107;28;20240;-66
2020/12/08 03:41:58;;;;;;;9.30;5.97;;;;;;;2.79;100.00;95362.41;5072381;28;20701;-66
2020/12/08 03:44:28;;;;;;;86.53;45.03;;;;;;;2.83;100.00;95353.97;5072471;28;20194;-65
2020/12/08 03:46:56;;;;;;;16.23;9.97;;;;;;;2.79;100.00;95357.28;5072179;28;20205;-66
2020/12/08 03:49:26;;;;;;;7.40;4.80;;;;;;;2.88;100.00;95363.47;5072159;28;20207;-65
2020/12/08 03:51:53;;;;;;;2.63;2.43;;;;;;;2.83;100.00;95351.41;5072035;28;20189;-65
2020/12/08 03:54:20;;;;;;;3.27;2.97;;;;;;;2.86;100.00;95357.81;5072045;28;20192;-66
2020/12/08 03:56:47;;;;;;;5.30;4.13;;;;;;;2.80;100.00;95363.94;5071990;28;20193;-65
2020/12/08 03:59:17;;;;;;;2.67;2.40;;;;;;;2.92;100.00;95361.97;5072017;28;20197;-66
2020/12/08 04:01:44;;;;;;;8.03;5.53;;;;;;;2.91;100.00;95362.97;5071996;28;20234;-66
2020/12/08 04:07:34;;;;;;;5.70;4.70;;;;;;;2.93;100.00;95378.91;5072076;28;20200;-66
2020/12/08 04:10:00;;;;;;;7.00;4.70;;;;;;;2.96;100.00;95379.19;5071742;28;20189;-64
2020/12/08 04:12:27;;;;;;;6.07;5.03;;;;;;;2.98;100.00;95382.28;5071757;28;20191;-66
2020/12/08 04:14:54;;;;;;;9.63;7.67;;;;;;;2.94;100.00;95378.63;5071732;28;20672;-66
2020/12/08 04:17:21;;;;;;;4.70;3.83;;;;;;;3.08;100.00;95385.91;5071545;28;20651;-66
2020/12/08 04:19:48;;;;;;;5.03;3.60;;;;;;;3.17;100.00;95387.78;5071833;28;20196;-66
2020/12/08 04:22:14;;;;;;;2.57;2.17;;;;;;;3.12;100.00;95390.31;5070884;28;20240;-65
2020/12/08 04:24:42;;;;;;;2.90;2.50;;;;;;;3.17;100.00;95384.44;5071614;28;20329;-65
2020/12/08 04:27:09;;;;;;;5.03;3.70;;;;;;;3.23;100.00;95389.34;5071395;28;20202;-65
2020/12/08 04:29:36;;;;;;;3.60;2.87;;;;;;;3.25;100.00;95389.84;5071207;28;20737;-66
2020/12/08 04:32:04;;;;;;;5.20;4.60;;;;;;;3.16;100.00;95388.78;5071163;28;20192;-64
2020/12/08 04:34:31;;;;;;;4.23;3.83;;;;;;;3.15;99.63;95396.72;5071246;28;20189;-64
2020/12/08 04:36:59;;;;;;;2.63;2.10;;;;;;;3.06;99.22;95404.13;5071198;28;20202;-66
2020/12/08 04:39:26;;;;;;;2.40;2.20;;;;;;;3.01;99.74;95399.75;5070979;28;20289;-67
2020/12/08 04:41:54;;;;;;;2.13;1.90;;;;;;;3.08;100.00;95396.97;5071407;28;20226;-66
2020/12/08 04:44:21;;;;;;;3.10;2.60;;;;;;;2.98;99.56;95396.91;5071056;28;20198;-66
2020/12/08 04:46:55;;;;;;;3.00;2.40;;;;;;;2.93;100.00;95396.88;5071117;28;20198;-67
2020/12/08 04:49:22;;;;;;;2.37;2.17;;;;;;;2.87;100.00;95397.84;5070840;28;20204;-63
2020/12/08 04:51:49;;;;;;;3.10;2.23;;;;;;;2.77;100.00;95388.28;5071010;28;20193;-67
2020/12/08 04:54:16;;;;;;;3.00;2.27;;;;;;;2.76;100.00;95394.44;5070923;28;20190;-66
2020/12/08 04:56:44;;;;;;;2.63;2.37;;;;;;;2.70;100.00;95394.66;5070822;28;20312;-66
2020/12/08 04:59:21;;;;;;;2.90;2.30;;;;;;;2.76;100.00;95388.53;5071062;28;20666;-65
2020/12/08 05:01:48;;;;;;;2.63;1.90;;;;;;;2.89;100.00;95390.69;5070975;28;20226;-66
2020/12/08 05:04:24;;;;;;;2.97;2.00;;;;;;;2.84;100.00;95401.66;5070772;28;20247;-66
2020/12/08 05:07:04;;;;;;;2.13;1.90;;;;;;;2.91;98.72;95402.25;5070892;28;20194;-66
2020/12/08 05:09:31;;;;;;;2.23;1.90;;;;;;;2.82;99.07;95395.25;5070606;28;20200;-66
2020/12/08 05:11:59;;;;;;;2.93;2.50;;;;;;;2.74;99.10;95395.72;5070757;28;20198;-65
2020/12/08 05:14:27;;;;;;;3.17;2.37;;;;;;;2.75;99.51;95397.25;5070634;28;20196;-66
2020/12/08 05:17:04;;;;;;;2.37;1.90;;;;;;;2.79;99.34;95398.31;5070432;28;20677;-66
2020/12/08 05:19:31;;;;;;;4.60;3.00;;;;;;;2.76;99.63;95396.22;5070586;28;20213;-66
2020/12/08 05:21:59;;;;;;;2.50;2.20;;;;;;;2.74;99.81;95405.97;5070381;28;20744;-66
2020/12/08 05:24:27;;;;;;;3.37;3.07;;;;;;;2.84;98.59;95403.50;5070173;28;20259;-65
2020/12/08 05:26:58;;;;;;;7.23;5.00;;;;;;;2.65;99.25;95397.16;5070406;28;20191;-66
2020/12/08 05:29:27;;;;;;;2.67;2.40;;;;;;;2.70;99.39;95403.13;5070352;28;20233;-66
2020/12/08 05:31:54;;;;;;;5.20;3.40;;;;;;;2.75;100.00;95407.50;5069797;28;20602;-66
2020/12/08 05:34:22;;;;;;;4.27;3.60;;;;;;;2.65;100.00;95412.56;5069802;28;20636;-65
2020/12/08 05:36:51;;;;;;;3.33;2.83;;;;;;;2.75;99.59;95418.53;5070289;28;20200;-66
2020/12/08 05:39:19;;;;;;;4.20;3.30;;;;;;;2.75;99.95;95420.34;5069985;28;20206;-66
2020/12/08 05:41:48;;;;;;;2.87;2.30;;;;;;;2.75;100.00;95423.69;5070169;28;20313;-67
2020/12/08 05:44:23;;;;;;;2.60;2.10;;;;;;;2.77;100.00;95433.69;5070198;28;20228;-66
2020/12/08 05:46:52;;;;;;;3.10;2.27;;;;;;;2.94;100.00;95431.75;5069973;28;20767;-66
2020/12/08 05:49:20;;;;;;;3.07;2.40;;;;;;;2.79;100.00;95434.25;5070076;28;20202;-66
2020/12/08 05:51:48;;;;;;;2.90;2.10;;;;;;;2.87;100.00;95433.78;5070442;28;20283;-65
2020/12/08 05:54:18;;;;;;;7.53;3.67;;;;;;;2.88;100.00;95436.09;5070283;28;20195;-65
2020/12/08 05:56:45;;;;;;;3.00;2.20;;;;;;;2.96;100.00;95434.88;5069740;28;20643;-67
2020/12/08 05:59:11;;;;;;;63.73;27.07;;;;;;;2.79;99.07;95434.25;5069972;28;20199;-65
2020/12/08 06:01:48;;;;;;;6.80;4.30;;;;;;;2.83;100.00;95427.59;5069979;28;20247;-66
2020/12/08 06:04:16;;;;;;;20.73;9.43;;;;;;;2.84;100.00;95435.03;5070382;28;20199;-66
2020/12/08 06:06:50;;;;;;;3.90;3.07;;;;;;;2.90;99.71;95431.47;5070078;28;20682;-66
2020/12/08 06:09:27;;;;;;;5.57;3.17;;;;;;;2.88;100.00;95437.91;5069923;28;20282;-66
2020/12/08 06:11:54;;;;;;;3.80;2.87;;;;;;;3.02;99.72;95439.78;5069822;28;20197;-65
2020/12/08 06:14:35;;;;;;;5.30;3.27;;;;;;;2.99;99.24;95447.19;5070071;28;20193;-66
2020/12/08 06:17:03;;;;;;;7.00;3.27;;;;;;;2.90;99.45;95448.66;5069819;28;20200;-65
2020/12/08 06:19:31;;;;;;;7.47;4.43;;;;;;;2.81;100.00;95447.59;5069849;28;20200;-64
2020/12/08 06:21:58;;;;;;;6.80;4.20;;;;;;;2.87;100.00;95446.59;5069820;28;20233;-63
2020/12/08 06:24:25;;;;;;;7.83;4.37;;;;;;;2.91;100.00;95447.66;5069849;28;20642;-66
2020/12/08 06:26:52;;;;;;;6.40;4.70;;;;;;;2.91;100.00;95451.00;5070235;28;20681;-65
2020/12/08 06:29:20;;;;;;;12.33;6.63;;;;;;;2.91;100.00;95457.91;5069602;28;20812;-64
2020/12/08 06:31:48;;;;;;;11.93;7.53;;;;;;;2.94;100.00;95457.41;5070140;28;20251;-66
2020/12/08 06:34:22;;;;;;;9.53;6.90;;;;;;;2.88;100.00;95454.06;5069601;28;20569;-66
2020/12/08 06:36:49;;;;;;;8.77;6.43;;;;;;;2.86;100.00;95465.59;5069607;28;20286;-66
2020/12/08 06:39:16;;;;;;;15.43;10.77;;;;;;;2.95;100.00;95461.53;5069434;28;20196;-65
2020/12/08 06:41:44;;;;;;;15.50;10.93;;;;;;;2.95;99.96;95466.66;5069508;28;20225;-66
2020/12/08 06:44:16;;;;;;;23.97;17.27;;;;;;;3.01;99.31;95473.41;5071124;28;20206;-66
2020/12/08 06:46:53;;;;;;;11.10;7.83;;;;;;;2.93;99.28;95479.00;5073287;28;20202;-65
2020/12/08 06:49:19;;;;;;;17.50;9.43;;;;;;;2.94;100.00;95477.94;5073301;28;20730;-66
2020/12/08 06:51:55;;;;;;;12.97;6.57;;;;;;;2.94;100.00;95490.78;5073136;28;20199;-66
2020/12/08 06:54:23;;;;;;;8.93;5.40;;;;;;;2.89;99.39;95495.91;5073233;28;20274;-65
2020/12/08 06:56:50;;;;;;;14.53;8.87;;;;;;;3.01;99.52;95496.50;5073107;28;20626;-66
2020/12/08 06:59:24;;;;;;;9.23;5.73;;;;;;;3.01;100.00;95497.28;5073211;28;20668;-66
2020/12/08 07:01:51;;;;;;;14.20;8.00;;;;;;;3.01;99.49;95499.84;5072936;28;20241;-66
2020/12/08 07:04:19;;;;;;;7.87;5.10;;;;;;;3.02;99.10;95498.06;5073094;28;20198;-66
2020/12/08 07:06:46;;;;;;;26.77;14.20;;;;;;;3.06;98.59;95509.38;5073108;28;20202;-66
2020/12/08 07:09:14;;;;;;;12.97;7.40;;;;;;;3.11;97.47;95500.94;5073176;28;21013;-66
2020/12/08 07:11:41;;;;;;;21.13;11.47;;;;;;;3.10;98.57;95502.72;5072756;28;20205;-65
2020/12/08 07:14:08;;;;;;;35.57;20.57;;;;;;;3.18;98.31;95498.94;5072840;28;20192;-65
2020/12/08 07:16:36;;;;;;;27.00;17.67;;;;;;;3.27;98.41;95493.09;5072754;28;20572;-66
2020/12/08 07:19:04;;;;;;;14.93;9.43;;;;;;;3.36;99.52;95496.75;5072701;28;20282;-66
2020/12/08 07:21:32;;;;;;;16.43;10.77;;;;;;;3.36;98.78;95491.63;5072629;28;20238;-66
2020/12/08 07:23:58;;;;;;;16.50;11.10;;;;;;;3.41;99.20;95493.44;5072672;28;20195;-62
2020/12/08 07:26:28;;;;;;;21.37;13.13;;;;;;;3.60;99.44;95507.41;5072620;28;20302;-66
2020/12/08 07:28:56;;;;;;;17.00;11.93;;;;;;;3.60;99.14;95511.78;5072383;28;20740;-63
2020/12/08 07:31:24;;;;;;;9.60;6.80;;;;;;;3.66;99.32;95518.50;5072512;28;20199;-66
2020/12/08 07:33:52;;;;;;;120.77;37.60;;;;;;;3.79;98.91;95513.69;5072699;28;20274;-66
2020/12/08 07:36:26;;;;;;;38.07;20.97;;;;;;;3.88;98.85;95519.13;5072748;28;20196;-66
2020/12/08 07:38:54;;;;;;;14.83;9.27;;;;;;;3.94;99.49;95518.13;5072425;28;20196;-63
2020/12/08 07:41:22;;;;;;;8.47;6.30;;;;;;;4.08;98.88;95524.38;5072108;28;20224;-65
2020/12/08 07:43:51;;;;;;;8.40;5.97;;;;;;;4.09;96.85;95519.97;5072518;28;20195;-64
2020/12/08 07:46:25;;;;;;;12.97;7.50;;;;;;;4.02;96.49;95517.66;5072209;28;20202;-65
2020/12/08 07:49:03;;;;;;;34.97;21.30;;;;;;;4.13;97.39;95521.03;5072332;28;20715;-66
2020/12/08 07:51:30;;;;;;;18.43;10.63;;;;;;;4.11;97.10;95520.50;5072176;28;20286;-65
2020/12/08 07:53:57;;;;;;;19.97;12.37;;;;;;;4.14;96.42;95522.56;5072181;28;20281;-65
2020/12/08 07:56:25;;;;;;;34.67;18.77;;;;;;;4.23;96.19;95515.94;5071190;28;20650;-66
2020/12/08 07:58:53;;;;;;;32.10;16.37;;;;;;;4.22;94.15;95525.44;5071873;28;20678;-65
2020/12/08 08:01:20;;;;;;;34.23;14.93;;;;;;;4.05;94.39;95522.28;5071595;28;20694;-65
2020/12/08 08:03:47;;;;;;;27.07;16.30;;;;;;;4.00;95.86;95526.63;5071490;28;20202;-65
2020/12/08 08:06:15;;;;;;;32.00;15.47;;;;;;;4.08;96.04;95532.09;5071536;28;20200;-66
2020/12/08 08:08:42;;;;;;;22.10;12.97;;;;;;;4.23;95.96;95526.22;5071594;28;20680;-66
2020/12/08 08:11:09;;;;;;;29.67;16.57;;;;;;;4.34;96.27;95528.56;5071718;28;20199;-66
2020/12/08 08:13:35;;;;;;;31.27;16.73;;;;;;;4.45;95.89;95520.88;5071885;28;20239;-66
2020/12/08 08:16:03;;;;;;;16.30;9.47;;;;;;;4.49;96.29;95529.63;5071682;28;20288;-67
2020/12/08 08:18:31;;;;;;;17.23;10.10;;;;;;;4.62;96.63;95536.88;5071484;28;20204;-66
2020/12/08 08:21:00;;;;;;;30.03;16.07;;;;;;;4.78;96.91;95539.22;5071618;28;20279;-66
2020/12/08 08:23:27;;;;;;;23.27;14.10;;;;;;;4.86;96.21;95540.53;5071389;28;20231;-65
2020/12/08 08:25:53;;;;;;;27.63;16.03;;;;;;;4.83;94.83;95548.78;5071889;28;20201;-66
2020/12/08 08:28:20;;;;;;;31.30;18.60;;;;;;;4.86;94.44;95545.69;5071597;28;20283;-66
2020/12/08 08:30:47;;;;;;;21.60;12.43;;;;;;;5.04;94.26;95559.84;5071404;28;20252;-66
2020/12/08 08:33:15;;;;;;;16.97;10.27;;;;;;;4.99;94.38;95552.13;5071234;28;20660;-67
2020/12/08 08:35:42;;;;;;;15.57;9.40;;;;;;;5.03;94.23;95550.59;5071120;28;20303;-67
2020/12/08 08:38:09;;;;;;;18.33;10.20;;;;;;;5.11;93.86;95553.44;5071282;28;20193;-65
2020/12/08 08:40:36;;;;;;;17.50;9.30;;;;;;;5.16;92.35;95560.38;5070948;28;20236;-67
2020/12/08 08:43:02;;;;;;;26.47;12.37;;;;;;;5.19;93.83;95565.78;5070933;28;20730;-66
2020/12/08 08:45:29;;;;;;;28.37;13.10;;;;;;;5.20;93.04;95562.19;5071110;28;20584;-67
2020/12/08 08:47:56;;;;;;;21.40;10.87;;;;;;;5.07;92.06;95551.63;5071000;28;20206;-66
2020/12/08 08:50:24;;;;;;;21.77;11.40;;;;;;;5.06;92.84;95561.16;5070830;28;20200;-67
2020/12/08 08:52:51;;;;;;;29.83;15.33;;;;;;;5.11;92.19;95562.94;5070900;28;20282;-67
2020/12/08 08:55:17;;;;;;;24.07;14.37;;;;;;;5.10;93.37;95562.19;5070997;28;20203;-66
2020/12/08 08:57:45;;;;;;;23.93;15.33;;;;;;;5.10;93.81;95556.25;5070979;28;20308;-66
2020/12/08 09:00:12;;;;;;;24.10;15.63;;;;;;;5.19;94.30;95560.63;5070885;28;20208;-65
2020/12/08 09:02:39;;;;;;;20.03;12.87;;;;;;;5.25;93.20;95558.06;5070671;28;20315;-65
2020/12/08 09:05:06;;;;;;;20.23;12.57;;;;;;;5.15;93.31;95559.59;5070701;28;20199;-67
2020/12/08 09:07:37;;;;;;;20.00;12.50;;;;;;;5.17;91.87;95552.41;5071028;28;20280;-66
2020/12/08 09:10:04;;;;;;;19.93;10.97;;;;;;;5.17;92.24;95551.63;5070850;28;20581;-66
2020/12/08 09:12:31;;;;;;;19.90;12.23;;;;;;;5.18;92.40;95553.94;5070448;28;20283;-65
2020/12/08 09:15:00;;;;;;;50.40;22.03;;;;;;;5.23;92.92;95554.97;5070491;28;20191;-65
2020/12/08 09:17:27;;;;;;;31.33;17.50;;;;;;;5.17;92.73;95546.47;5070454;28;20193;-68
2020/12/08 09:19:54;;;;;;;31.13;17.93;;;;;;;5.14;92.80;95537.44;5070413;28;20200;-67
2020/12/08 09:22:21;;;;;;;24.43;15.37;;;;;;;5.17;93.26;95531.81;5070363;28;20224;-67
2020/12/08 09:24:49;;;;;;;34.43;20.53;;;;;;;5.20;93.84;95533.84;5070516;28;20210;-67
2020/12/08 09:27:17;;;;;;;24.57;15.30;;;;;;;5.35;92.90;95537.44;5070454;28;20222;-66
2020/12/08 09:29:44;;;;;;;25.23;15.97;;;;;;;5.32;93.11;95532.81;5070331;28;20291;-67
2020/12/08 09:32:11;;;;;;;32.47;17.77;;;;;;;5.37;93.19;95535.41;5070267;28;20249;-65
2020/12/08 09:34:38;;;;;;;30.47;16.97;;;;;;;5.49;91.69;95525.56;5070148;28;20196;-66
2020/12/08 09:37:05;;;;;;;27.93;15.80;;;;;;;5.61;91.23;95526.09;5070173;28;20778;-66
2020/12/08 09:39:32;;;;;;;45.60;23.50;;;;;;;5.69;91.30;95520.38;5070093;28;20315;-67
2020/12/08 09:42:00;;;;;;;38.90;20.87;;;;;;;5.80;91.58;95518.56;5070125;28;20581;-67
2020/12/08 09:44:26;;;;;;;33.80;18.67;;;;;;;5.80;90.12;95518.56;5070309;28;20576;-66
2020/12/08 09:46:53;;;;;;;32.10;17.47;;;;;;;5.86;90.48;95513.13;5070029;28;20203;-67
2020/12/08 09:49:20;;;;;;;26.20;15.17;;;;;;;5.90;89.02;95514.19;5070323;28;20194;-68
2020/12/08 09:51:47;;;;;;;20.50;12.37;;;;;;;5.84;88.54;95512.63;5070081;28;20200;-67
2020/12/08 09:54:14;;;;;;;23.70;14.00;;;;;;;5.81;89.70;95517.53;5070010;28;20198;-68
2020/12/08 09:56:46;;;;;;;21.13;13.13;;;;;;;5.86;89.42;95523.47;5070181;28;20222;-67
2020/12/08 09:59:13;;;;;;;23.00;12.53;;;;;;;5.83;90.27;95523.97;5069953;28;20209;-66
2020/12/08 10:01:40;;;;;;;19.37;11.90;;;;;;;5.97;89.73;95519.06;5069897;28;20195;-68
2020/12/08 10:04:10;;;;;;;15.03;8.63;;;;;;;5.87;89.61;95522.47;5069860;28;20192;-67
2020/12/08 10:06:37;;;;;;;10.97;7.90;;;;;;;5.94;89.96;95514.41;5070060;28;20295;-67
2020/12/08 10:09:04;;;;;;;11.57;7.67;;;;;;;5.94;90.07;95504.88;5069870;28;20199;-68
2020/12/08 10:11:31;;;;;;;12.20;7.83;;;;;;;5.92;90.21;95509.53;5069681;28;20196;-66
2020/12/08 10:13:58;;;;;;;15.17;9.03;;;;;;;5.90;91.74;95509.03;5070114;28;20202;-65
2020/12/08 10:16:27;;;;;;;44.97;18.97;;;;;;;6.14;90.59;95508.41;5069856;28;20200;-67
2020/12/08 10:18:54;;;;;;;23.63;12.40;;;;;;;6.77;89.50;95509.41;5070714;28;20200;-67
2020/12/08 10:21:21;;;;;;;15.27;9.23;;;;;;;6.96;87.41;95504.34;5073929;28;20697;-67
2020/12/08 10:23:49;;;;;;;20.03;12.10;;;;;;;7.05;86.63;95510.47;5073719;28;20224;-67
2020/12/08 10:26:16;;;;;;;20.93;11.57;;;;;;;7.00;87.08;95508.72;5073827;28;20202;-67
2020/12/08 10:28:42;;;;;;;18.57;11.43;;;;;;;7.13;88.39;95509.91;5073678;28;20584;-68
2020/12/08 10:31:14;;;;;;;17.60;11.53;;;;;;;6.99;89.05;95514.13;5073924;28;20586;-67
2020/12/08 10:33:43;;;;;;;23.23;14.30;;;;;;;7.24;89.16;95504.38;5073684;28;20202;-68
2020/12/08 10:36:10;;;;;;;31.97;16.00;;;;;;;7.28;88.14;95507.19;5073694;28;20675;-68
2020/12/08 10:38:37;;;;;;;20.67;13.07;;;;;;;7.34;89.09;95504.31;5073650;28;20297;-67
2020/12/08 10:41:04;;;;;;;21.07;13.13;;;;;;;7.11;90.78;95501.66;5073737;28;20268;-67
2020/12/08 10:43:31;;;;;;;20.73;12.77;;;;;;;6.85;91.38;95495.91;5073320;28;20581;-67
2020/12/08 10:45:59;;;;;;;17.43;12.70;;;;;;;6.66;93.07;95500.94;5073608;28;20211;-66
2020/12/08 10:48:26;;;;;;;17.63;12.60;;;;;;;6.52;93.67;95501.81;5073349;28;20196;-68
2020/12/08 10:50:53;;;;;;;21.00;12.67;;;;;;;6.65;93.44;95501.97;5073416;28;20196;-67
2020/12/08 10:53:20;;;;;;;24.93;15.23;;;;;;;7.04;93.40;95501.19;5073329;28;20193;-68
2020/12/08 10:55:47;;;;;;;21.23;14.17;;;;;;;6.84;92.71;95502.88;5073228;28;20646;-68
2020/12/08 10:58:14;;;;;;;20.73;13.90;;;;;;;6.76;93.22;95495.72;5073244;28;20227;-67
2020/12/08 11:00:40;;;;;;;21.27;13.60;;;;;;;6.80;93.89;95501.09;5073478;28;20226;-67
2020/12/08 11:03:07;;;;;;;21.70;14.30;;;;;;;6.60;94.01;95496.84;5073000;28;20797;-67
2020/12/08 11:05:34;;;;;;;20.97;13.90;;;;;;;6.88;92.90;95503.88;5073099;28;20191;-66
2020/12/08 11:08:01;;;;;;;29.17;16.33;;;;;;;7.30;91.21;95499.94;5073095;28;20206;-67
2020/12/08 11:10:28;;;;;;;22.17;15.67;;;;;;;7.46;91.79;95503.94;5073189;28;20196;-66
2020/12/08 11:12:55;;;;;;;23.77;16.20;;;;;;;7.42;90.27;95497.78;5073307;28;20331;-67
2020/12/08 11:15:22;;;;;;;20.90;14.83;;;;;;;7.45;89.62;95502.41;5072849;28;20629;-67
2020/12/08 11:17:49;;;;;;;37.73;18.13;;;;;;;7.77;90.91;95499.25;5072732;28;20192;-65
2020/12/08 11:20:16;;;;;;;21.73;15.10;;;;;;;8.03;87.94;95507.47;5072994;28;20207;-67
2020/12/08 11:22:42;;;;;;;23.97;16.03;;;;;;;8.21;85.94;95504.97;5073358;28;20414;-66
2020/12/08 11:25:14;;;;;;;28.13;17.87;;;;;;;7.66;88.17;95501.16;5072604;28;20203;-67
2020/12/08 11:27:40;;;;;;;29.60;18.60;;;;;;;7.99;89.24;95496.94;5072531;28;20193;-67
2020/12/08 11:30:07;;;;;;;26.57;17.63;;;;;;;8.23;88.36;95497.66;5071838;28;20217;-67
2020/12/08 11:32:34;;;;;;;25.43;18.13;;;;;;;8.31;87.38;95491.16;5072352;28;20204;-68
2020/12/08 11:35:01;;;;;;;45.37;24.80;;;;;;;8.14;86.43;95498.56;5072401;28;20192;-67
2020/12/08 11:37:28;;;;;;;38.30;23.40;;;;;;;8.19;86.66;95491.50;5072416;28;20200;-67